Time;durP1;ratioP1;P1;durP2;ratioP2;P2;SDS_P1;SDS_P2;PMS_P1;PMS_P2;Temp;Humidity;BMP_temperature;BMP_pressure;BME280_temperature;BME280_humidity;BME280_pressure;Samples;Min_cycle;Max_cycle;Signal;HPM_P1;HPM_P2
2022/11/17 00:00:20;;;;;;;10.90;5.40;;;;;;;;;;8377672;28;20469;-88
2022/11/17 00:04:39;;;;;;;7.93;3.92;;;;;;;;;;8391149;28;20040;-89
2022/11/17 00:08:42;;;;;;;5.88;3.35;;;;;;;;;;8403265;28;20049;-90
2022/11/17 00:21:39;;;;;;;5.85;3.45;;;;;;;;;;8405795;28;20040;-90
2022/11/17 00:25:47;;;;;;;6.35;3.70;;;;;;;;;;8433909;28;20044;-89
2022/11/17 00:29:51;;;;;;;6.55;3.85;;;;;;;;;;8448046;28;20054;-90
2022/11/17 00:34:04;;;;;;;9.55;5.07;;;;;;;;;;8428216;28;20052;-90
2022/11/17 00:38:16;;;;;;;3.85;2.53;;;;;;;;;;8432653;28;20237;-88
2022/11/17 00:42:25;;;;;;;8.50;4.82;;;;;;;;;;8348541;28;20051;-89
2022/11/17 00:46:34;;;;;;;9.15;4.95;;;;;;;;;;8438544;28;20091;-90
2022/11/17 00:50:38;;;;;;;6.10;3.45;;;;;;;;;;8385637;28;20063;-88
2022/11/17 00:54:55;;;;;;;8.68;3.85;;;;;;;;;;8381098;28;20048;-89
2022/11/17 00:59:04;;;;;;;8.38;4.28;;;;;;;;;;8394763;28;20076;-90
2022/11/17 01:03:24;;;;;;;8.00;4.55;;;;;;;;;;8443200;28;20059;-90
2022/11/17 01:07:42;;;;;;;9.95;5.07;;;;;;;;;;8433905;28;20048;-91
2022/11/17 01:12:01;;;;;;;9.68;4.30;;;;;;;;;;8423439;28;20483;-90
2022/11/17 01:16:36;;;;;;;9.90;5.18;;;;;;;;;;8441049;28;20047;-89
2022/11/17 01:20:55;;;;;;;8.65;4.97;;;;;;;;;;8413094;28;20075;-90
2022/11/17 01:25:08;;;;;;;9.50;4.80;;;;;;;;;;8400399;28;20405;-90
2022/11/17 01:29:29;;;;;;;8.10;4.55;;;;;;;;;;8429935;28;20055;-90
2022/11/17 01:33:38;;;;;;;4.38;2.63;;;;;;;;;;8397815;28;20060;-90
2022/11/17 01:38:00;;;;;;;9.27;4.85;;;;;;;;;;8442659;28;20043;-90
2022/11/17 01:42:17;;;;;;;9.32;4.72;;;;;;;;;;8411238;28;20052;-89
2022/11/17 01:46:51;;;;;;;9.13;4.32;;;;;;;;;;8421223;28;20082;-90
2022/11/17 01:50:56;;;;;;;8.13;3.50;;;;;;;;;;8409754;28;20411;-89
2022/11/17 01:55:03;;;;;;;11.57;4.53;;;;;;;;;;8431736;28;20045;-90
2022/11/17 02:03:42;;;;;;;4.75;2.90;;;;;;;;;;8422496;28;20032;-90
2022/11/17 02:07:46;;;;;;;8.15;4.00;;;;;;;;;;8416401;28;20040;-89
2022/11/17 02:11:49;;;;;;;8.82;4.85;;;;;;;;;;8434631;28;20396;-88
2022/11/17 02:15:52;;;;;;;8.73;4.70;;;;;;;;;;8430315;28;20040;-88
2022/11/17 02:20:04;;;;;;;12.70;4.90;;;;;;;;;;8425927;28;20049;-88
2022/11/17 02:24:45;;;;;;;13.50;5.47;;;;;;;;;;8405248;28;20130;-89
2022/11/17 02:29:03;;;;;;;9.55;5.00;;;;;;;;;;8416354;28;20052;-90
2022/11/17 02:33:16;;;;;;;8.80;4.72;;;;;;;;;;8442535;28;20044;-89
2022/11/17 02:37:28;;;;;;;8.85;4.22;;;;;;;;;;8427054;28;20570;-89
2022/11/17 02:46:24;;;;;;;8.45;4.30;;;;;;;;;;8290592;27;5337334;-88
2022/11/17 02:50:30;;;;;;;8.00;4.40;;;;;;;;;;8476686;28;20040;-89
2022/11/17 02:54:34;;;;;;;6.75;3.65;;;;;;;;;;8475705;28;20054;-90
2022/11/17 02:58:40;;;;;;;4.78;2.95;;;;;;;;;;8469603;28;20070;-89
2022/11/17 03:03:12;;;;;;;7.30;3.72;;;;;;;;;;8458224;28;20487;-90
2022/11/17 03:07:31;;;;;;;9.10;4.68;;;;;;;;;;8444900;28;20479;-89
2022/11/17 03:11:47;;;;;;;12.18;5.22;;;;;;;;;;8444563;28;20068;-89
2022/11/17 03:16:09;;;;;;;5.38;2.80;;;;;;;;;;8455050;28;20036;-89
2022/11/17 03:20:23;;;;;;;8.82;4.80;;;;;;;;;;8473266;28;20057;-90
2022/11/17 03:24:40;;;;;;;10.60;5.15;;;;;;;;;;8479982;28;20044;-89
2022/11/17 03:28:46;;;;;;;8.48;4.20;;;;;;;;;;8478568;28;20096;-91
2022/11/17 03:33:01;;;;;;;9.70;4.85;;;;;;;;;;8441641;28;20048;-90
2022/11/17 03:37:11;;;;;;;5.25;3.17;;;;;;;;;;8445120;28;20584;-90
2022/11/17 03:41:17;;;;;;;10.02;4.75;;;;;;;;;;8447477;28;20052;-90
2022/11/17 03:45:47;;;;;;;9.32;4.85;;;;;;;;;;8481456;28;20052;-90
2022/11/17 03:50:03;;;;;;;9.77;5.43;;;;;;;;;;8471732;28;20036;-92
2022/11/17 03:54:11;;;;;;;8.73;4.50;;;;;;;;;;8465000;28;20108;-91
2022/11/17 03:58:18;;;;;;;11.73;5.13;;;;;;;;;;8440418;28;20095;-92
2022/11/17 04:02:25;;;;;;;9.13;4.18;;;;;;;;;;8444164;28;20101;-93
2022/11/17 04:06:46;;;;;;;6.80;3.50;;;;;;;;;;8454049;28;20044;-91
2022/11/17 04:19:43;;;;;;;8.00;4.13;;;;;;;;;;8437121;28;20063;-93
2022/11/17 04:23:53;;;;;;;6.38;3.97;;;;;;;;;;8440867;28;20033;-92
2022/11/17 04:28:44;;;;;;;7.05;3.92;;;;;;;;;;8417867;28;20123;-94
2022/11/17 04:32:53;;;;;;;6.97;3.93;;;;;;;;;;8445352;28;20040;-92
2022/11/17 04:36:59;;;;;;;7.60;4.53;;;;;;;;;;8437640;28;20040;-92
2022/11/17 04:45:36;;;;;;;8.40;4.45;;;;;;;;;;8411133;28;20125;-92
2022/11/17 04:49:40;;;;;;;7.18;3.65;;;;;;;;;;8436257;28;20116;-92
2022/11/17 04:53:47;;;;;;;4.72;2.70;;;;;;;;;;8421321;28;20083;-92
2022/11/17 04:58:04;;;;;;;4.50;2.97;;;;;;;;;;8432456;28;20047;-92
2022/11/17 05:02:24;;;;;;;7.10;4.25;;;;;;;;;;8438250;28;20055;-94
2022/11/17 05:06:46;;;;;;;7.30;4.22;;;;;;;;;;8420090;28;20048;-93
2022/11/17 05:17:03;;;;;;;6.28;3.58;;;;;;;;;;8449765;28;20040;-93
2022/11/17 05:29:31;;;;;;;8.52;4.30;;;;;;;;;;8599322;23;20506;-93
2022/11/17 05:33:40;;;;;;;7.30;4.13;;;;;;;;;;8240024;28;20117;-93
2022/11/17 05:37:46;;;;;;;9.82;5.53;;;;;;;;;;8266061;22;20063;-94
2022/11/17 05:41:58;;;;;;;42.88;31.52;;;;;;;;;;8230760;28;20085;-94
2022/11/17 05:46:06;;;;;;;20.80;11.93;;;;;;;;;;8220556;28;20078;-93
2022/11/17 05:50:10;;;;;;;19.40;7.68;;;;;;;;;;8207723;28;20460;-93
2022/11/17 05:54:16;;;;;;;7.05;3.95;;;;;;;;;;8207160;28;20389;-93
2022/11/17 05:58:52;;;;;;;13.25;4.60;;;;;;;;;;8242364;28;20058;-94
2022/11/17 06:03:08;;;;;;;15.80;4.80;;;;;;;;;;8223358;28;20042;-93
2022/11/17 06:07:13;;;;;;;226.85;76.25;;;;;;;;;;8212044;28;20054;-94
2022/11/17 06:11:18;;;;;;;54.58;14.27;;;;;;;;;;8208321;28;20059;-94
2022/11/17 06:15:24;;;;;;;43.50;10.90;;;;;;;;;;8207775;29;20043;-93
2022/11/17 06:19:34;;;;;;;28.67;9.82;;;;;;;;;;8222999;28;20509;-94
2022/11/17 06:23:42;;;;;;;44.28;11.27;;;;;;;;;;8230455;28;20476;-92
2022/11/17 06:27:58;;;;;;;38.35;11.98;;;;;;;;;;8238259;28;20042;-95
2022/11/17 06:32:03;;;;;;;63.03;19.58;;;;;;;;;;8259628;23;20425;-92
2022/11/17 06:36:09;;;;;;;197.32;39.28;;;;;;;;;;8238597;28;20042;-93
2022/11/17 06:40:13;;;;;;;109.25;19.83;;;;;;;;;;8240956;28;20118;-91
2022/11/17 06:44:18;;;;;;;17.50;7.95;;;;;;;;;;8245722;28;20041;-89
2022/11/17 06:48:25;;;;;;;12.27;6.53;;;;;;;;;;8238577;28;20054;-87
2022/11/17 06:52:32;;;;;;;11.82;5.82;;;;;;;;;;8237685;28;20043;-91
2022/11/17 06:56:35;;;;;;;20.20;7.63;;;;;;;;;;8232421;28;20074;-92
2022/11/17 07:00:38;;;;;;;7.78;3.78;;;;;;;;;;8228860;28;20043;-91
2022/11/17 07:04:40;;;;;;;10.25;5.97;;;;;;;;;;8232065;28;20046;-90
2022/11/17 07:08:45;;;;;;;10.63;6.05;;;;;;;;;;8234503;28;20050;-87
2022/11/17 07:12:48;;;;;;;5.78;3.17;;;;;;;;;;8237792;28;20047;-92
2022/11/17 07:16:54;;;;;;;11.15;5.25;;;;;;;;;;8246353;28;20070;-91
2022/11/17 07:21:01;;;;;;;11.93;5.40;;;;;;;;;;8235146;28;20388;-91
2022/11/17 07:25:13;;;;;;;8.98;5.25;;;;;;;;;;8235405;28;20466;-91
2022/11/17 07:29:19;;;;;;;7.55;4.18;;;;;;;;;;8237440;28;20055;-90
2022/11/17 07:52:36;;;;;;;12.15;6.05;;;;;;;;;;8215785;29;20050;-92
2022/11/17 07:56:47;;;;;;;14.10;4.88;;;;;;;;;;8215952;28;20047;-91
2022/11/17 08:00:59;;;;;;;4.18;2.60;;;;;;;;;;8180973;29;20063;-91
2022/11/17 08:05:16;;;;;;;27.25;9.93;;;;;;;;;;8215217;29;20052;-94
2022/11/17 08:13:25;;;;;;;10.32;4.90;;;;;;;;;;8536753;23;20414;-92
2022/11/17 08:17:32;;;;;;;4.72;3.03;;;;;;;;;;8272408;23;20059;-93
2022/11/17 08:22:07;;;;;;;6.32;3.47;;;;;;;;;;8244443;28;20557;-93
2022/11/17 08:26:23;;;;;;;8.68;4.70;;;;;;;;;;8241378;28;20047;-93
2022/11/17 08:30:52;;;;;;;8.77;5.30;;;;;;;;;;8239189;28;20078;-92
2022/11/17 08:35:13;;;;;;;8.93;4.70;;;;;;;;;;8233113;28;20043;-93
2022/11/17 08:39:28;;;;;;;10.00;5.93;;;;;;;;;;8240566;28;20062;-92
2022/11/17 08:43:34;;;;;;;7.63;4.88;;;;;;;;;;8241189;28;20059;-93
2022/11/17 08:47:37;;;;;;;10.85;6.63;;;;;;;;;;8230815;28;20085;-93
2022/11/17 08:51:42;;;;;;;13.43;6.60;;;;;;;;;;8250589;28;20058;-92
2022/11/17 08:55:45;;;;;;;17.35;8.60;;;;;;;;;;8236069;28;20047;-93
2022/11/17 08:59:59;;;;;;;24.40;12.77;;;;;;;;;;8237906;28;20046;-93
2022/11/17 09:04:05;;;;;;;6.97;4.10;;;;;;;;;;8236977;28;20059;-92
2022/11/17 09:08:13;;;;;;;15.07;7.70;;;;;;;;;;8235792;28;20054;-91
2022/11/17 09:12:19;;;;;;;33.47;13.90;;;;;;;;;;8232396;28;20042;-92
2022/11/17 09:16:22;;;;;;;12.55;6.82;;;;;;;;;;8231429;28;20407;-93
2022/11/17 09:20:25;;;;;;;20.65;9.82;;;;;;;;;;8237367;28;20546;-92
2022/11/17 09:24:32;;;;;;;26.58;14.10;;;;;;;;;;8237380;28;20105;-93
2022/11/17 09:28:35;;;;;;;11.85;6.78;;;;;;;;;;8236810;28;20493;-93
2022/11/17 09:32:53;;;;;;;10.75;5.93;;;;;;;;;;8236342;28;20134;-94
2022/11/17 09:36:56;;;;;;;10.32;5.18;;;;;;;;;;8231925;28;20069;-92
2022/11/17 09:41:21;;;;;;;8.93;4.35;;;;;;;;;;8229003;28;20138;-92
2022/11/17 09:45:40;;;;;;;13.43;6.30;;;;;;;;;;8235473;28;20053;-93
2022/11/17 09:49:54;;;;;;;6.35;4.28;;;;;;;;;;8238671;28;20050;-93
2022/11/17 09:54:07;;;;;;;13.25;6.30;;;;;;;;;;8236529;28;20046;-92
2022/11/17 09:58:20;;;;;;;15.75;6.85;;;;;;;;;;8235945;28;20038;-88
2022/11/17 10:02:25;;;;;;;18.67;7.95;;;;;;;;;;8217559;28;20051;-88
2022/11/17 10:06:29;;;;;;;18.42;7.20;;;;;;;;;;8234070;28;20051;-88
2022/11/17 10:10:37;;;;;;;21.85;7.38;;;;;;;;;;8233287;28;20055;-94
2022/11/17 10:14:43;;;;;;;14.55;5.80;;;;;;;;;;8241109;28;20054;-92
2022/11/17 10:18:47;;;;;;;11.38;6.15;;;;;;;;;;8243477;28;20059;-94
2022/11/17 10:22:52;;;;;;;15.73;5.90;;;;;;;;;;8237070;28;20047;-92
2022/11/17 10:31:37;;;;;;;11.65;6.28;;;;;;;;;;8232830;28;20466;-94
2022/11/17 10:35:54;;;;;;;14.05;7.65;;;;;;;;;;8222962;28;20047;-88
2022/11/17 10:40:16;;;;;;;17.85;7.45;;;;;;;;;;8227983;28;20473;-88
2022/11/17 10:44:24;;;;;;;21.70;9.48;;;;;;;;;;8239970;28;20053;-88
2022/11/17 10:48:33;;;;;;;6.65;3.47;;;;;;;;;;8252551;28;20050;-88
2022/11/17 10:52:38;;;;;;;16.50;8.60;;;;;;;;;;8235871;28;20068;-89
2022/11/17 11:01:14;;;;;;;16.15;7.53;;;;;;;;;;8250023;28;20149;-90
2022/11/17 11:10:54;;;;;;;5.97;3.83;;;;;;;;;;8156903;23;20058;-89
2022/11/17 11:25:48;;;;;;;19.75;8.95;;;;;;;;;;8309106;28;20513;-87
2022/11/17 11:40:39;;;;;;;14.27;6.45;;;;;;;;;;8306324;28;20042;-91
2022/11/17 11:45:03;;;;;;;24.45;9.52;;;;;;;;;;8315704;28;20050;-92
2022/11/17 11:49:20;;;;;;;10.95;5.63;;;;;;;;;;8236436;28;20055;-91
2022/11/17 11:53:46;;;;;;;9.85;6.10;;;;;;;;;;8233793;28;20145;-92
2022/11/17 12:02:19;;;;;;;8.65;4.65;;;;;;;;;;8254236;28;20142;-94
2022/11/17 12:06:43;;;;;;;9.15;4.70;;;;;;;;;;8279702;28;20117;-96
2022/11/17 12:10:54;;;;;;;36.40;11.73;;;;;;;;;;8267840;28;20102;-95
2022/11/17 12:15:39;;;;;;;25.25;11.13;;;;;;;;;;8307721;23;20030;-96
2022/11/17 12:25:28;;;;;;;8.80;3.55;;;;;;;;;;8275159;28;20046;-92
2022/11/17 12:29:47;;;;;;;9.82;4.57;;;;;;;;;;8264131;28;20062;-94
2022/11/17 12:34:27;;;;;;;9.63;4.65;;;;;;;;;;8252992;28;20651;-92
2022/11/17 12:38:41;;;;;;;13.63;6.00;;;;;;;;;;8250789;28;20042;-91
2022/11/17 12:43:26;;;;;;;16.88;8.18;;;;;;;;;;8249400;28;20149;-93
2022/11/17 12:47:49;;;;;;;;;;;;;;;;;;;;;
2022/11/17 12:52:02;;;;;;;23.40;9.52;;;;;;;;;;8242092;28;20055;-90
2022/11/17 12:56:35;;;;;;;18.48;8.75;;;;;;;;;;8265604;28;20459;-90
2022/11/17 13:00:53;;;;;;;110.65;30.70;;;;;;;;;;8224512;28;20100;-91
2022/11/17 13:05:02;;;;;;;22.50;10.93;;;;;;;;;;8243364;28;20050;-94
2022/11/17 13:09:06;;;;;;;33.00;11.23;;;;;;;;;;8251429;28;20541;-94
2022/11/17 13:13:11;;;;;;;43.13;17.95;;;;;;;;;;8247579;28;20084;-92
2022/11/17 13:17:15;;;;;;;20.00;9.75;;;;;;;;;;8262814;28;20506;-95
2022/11/17 13:21:33;;;;;;;43.55;16.80;;;;;;;;;;8254810;28;20056;-91
2022/11/17 13:25:36;;;;;;;15.70;7.93;;;;;;;;;;8242384;28;20054;-94
2022/11/17 13:29:39;;;;;;;20.15;10.60;;;;;;;;;;8264115;28;20046;-94
2022/11/17 13:34:05;;;;;;;12.30;5.78;;;;;;;;;;8265114;28;20489;-92
2022/11/17 13:38:22;;;;;;;25.25;9.80;;;;;;;;;;8257282;28;20047;-94
2022/11/17 13:42:27;;;;;;;28.40;11.48;;;;;;;;;;8269822;23;20054;-90
2022/11/17 13:46:30;;;;;;;11.50;4.95;;;;;;;;;;8292060;28;20052;-92
2022/11/17 13:50:39;;;;;;;36.95;17.20;;;;;;;;;;8294315;28;20452;-93
2022/11/17 14:00:00;;;;;;;6.60;4.53;;;;;;;;;;8424694;23;20104;-92
2022/11/17 14:04:29;;;;;;;59.20;24.45;;;;;;;;;;8287401;28;20103;-93
2022/11/17 14:08:34;;;;;;;13.07;6.55;;;;;;;;;;8278365;28;20050;-92
2022/11/17 14:17:18;;;;;;;7.47;5.13;;;;;;;;;;8305133;23;20046;-91
2022/11/17 14:21:32;;;;;;;35.20;13.48;;;;;;;;;;8296431;28;20058;-92
2022/11/17 14:25:39;;;;;;;18.63;10.25;;;;;;;;;;8291270;28;20511;-92
2022/11/17 14:29:42;;;;;;;15.05;7.03;;;;;;;;;;8299154;28;20082;-94
2022/11/17 14:34:08;;;;;;;20.17;9.50;;;;;;;;;;8278006;28;20069;-93
2022/11/17 14:38:24;;;;;;;20.90;8.70;;;;;;;;;;8286422;28;20061;-93
2022/11/17 14:42:45;;;;;;;17.67;8.90;;;;;;;;;;8300454;28;20149;-93
2022/11/17 14:46:51;;;;;;;14.13;7.23;;;;;;;;;;8253328;28;20100;-94
2022/11/17 14:50:57;;;;;;;43.30;15.32;;;;;;;;;;8284124;28;20042;-93
2022/11/17 14:55:01;;;;;;;24.45;10.95;;;;;;;;;;8285481;28;20046;-93
2022/11/17 14:59:12;;;;;;;18.88;9.32;;;;;;;;;;8304503;28;20052;-91
2022/11/17 15:03:32;;;;;;;29.98;13.48;;;;;;;;;;8301675;28;20108;-93
2022/11/17 15:07:39;;;;;;;10.57;5.90;;;;;;;;;;8308693;28;20568;-91
2022/11/17 15:16:34;;;;;;;45.22;18.45;;;;;;;;;;8198253;29;20150;-90
2022/11/17 15:21:23;;;;;;;42.38;18.73;;;;;;;;;;8235200;28;20080;-91
2022/11/17 15:25:26;;;;;;;42.88;18.25;;;;;;;;;;8278018;28;20462;-89
2022/11/17 15:29:36;;;;;;;39.63;20.88;;;;;;;;;;8273188;28;20053;-89
2022/11/17 15:33:43;;;;;;;32.90;14.80;;;;;;;;;;8288743;28;20051;-89
2022/11/17 15:42:00;;;;;;;105.40;39.38;;;;;;;;;;8360973;23;20651;-93
2022/11/17 15:46:24;;;;;;;31.80;13.77;;;;;;;;;;8265604;28;20070;-88
2022/11/17 15:55:08;;;;;;;54.80;22.30;;;;;;;;;;8254910;28;20057;-88
2022/11/17 15:59:15;;;;;;;36.35;18.45;;;;;;;;;;8278886;28;20041;-90
2022/11/17 16:03:22;;;;;;;33.33;16.33;;;;;;;;;;8286379;28;20053;-90
2022/11/17 16:07:38;;;;;;;43.45;19.85;;;;;;;;;;8268482;28;20050;-88
2022/11/17 16:11:47;;;;;;;46.95;21.38;;;;;;;;;;8270943;28;20469;-96
2022/11/17 16:16:25;;;;;;;23.58;10.05;;;;;;;;;;8272627;28;20513;-91
2022/11/17 16:20:30;;;;;;;11.90;6.18;;;;;;;;;;8333864;23;20053;-90
2022/11/17 16:24:37;;;;;;;35.85;12.45;;;;;;;;;;8308150;28;20042;-88
2022/11/17 16:33:20;;;;;;;126.88;41.47;;;;;;;;;;8307242;28;20070;-89
2022/11/17 16:37:39;;;;;;;102.95;33.10;;;;;;;;;;8321262;28;20030;-94
2022/11/17 16:46:39;;;;;;;43.40;15.95;;;;;;;;;;8308803;28;20054;-89
2022/11/17 16:50:45;;;;;;;99.15;33.33;;;;;;;;;;8308698;28;20048;-89
2022/11/17 16:54:51;;;;;;;16.02;7.32;;;;;;;;;;8306343;28;20835;-87
2022/11/17 16:59:02;;;;;;;14.50;6.63;;;;;;;;;;8314677;28;20069;-90
2022/11/17 17:03:19;;;;;;;45.03;19.95;;;;;;;;;;8283176;28;20061;-89
2022/11/17 17:07:22;;;;;;;30.52;13.05;;;;;;;;;;8289682;28;20046;-89
2022/11/17 17:11:28;;;;;;;17.55;8.95;;;;;;;;;;8297611;28;20145;-90
2022/11/17 17:15:41;;;;;;;41.20;22.27;;;;;;;;;;8299889;28;20528;-93
2022/11/17 17:20:12;;;;;;;30.20;12.38;;;;;;;;;;8277189;28;20067;-90
2022/11/17 17:24:19;;;;;;;26.88;13.75;;;;;;;;;;8270114;23;20098;-89
2022/11/17 17:28:39;;;;;;;59.85;29.05;;;;;;;;;;8283247;28;20142;-90
2022/11/17 17:32:57;;;;;;;27.35;12.77;;;;;;;;;;8288052;28;20058;-89
2022/11/17 17:37:06;;;;;;;16.92;8.38;;;;;;;;;;8279695;28;20676;-89
2022/11/17 17:41:11;;;;;;;20.77;10.60;;;;;;;;;;8272726;28;20049;-89
2022/11/17 17:45:15;;;;;;;19.92;8.43;;;;;;;;;;8265028;28;20062;-90
2022/11/17 17:49:20;;;;;;;21.55;9.70;;;;;;;;;;8249831;28;20046;-89
2022/11/17 17:53:25;;;;;;;17.00;8.40;;;;;;;;;;8282639;28;20512;-89
2022/11/17 17:57:42;;;;;;;21.55;12.02;;;;;;;;;;8287039;28;20499;-90
2022/11/17 18:01:46;;;;;;;28.90;13.30;;;;;;;;;;8271702;28;20049;-89
2022/11/17 18:06:06;;;;;;;33.42;14.88;;;;;;;;;;8272609;28;20042;-89
2022/11/17 18:10:13;;;;;;;23.42;9.77;;;;;;;;;;8282586;28;20407;-89
2022/11/17 18:14:22;;;;;;;38.28;15.40;;;;;;;;;;8262080;28;20050;-90
2022/11/17 18:18:40;;;;;;;41.83;16.38;;;;;;;;;;8263045;28;20043;-89
2022/11/17 18:23:03;;;;;;;27.55;12.77;;;;;;;;;;8252729;28;20534;-90
2022/11/17 18:27:06;;;;;;;32.67;14.75;;;;;;;;;;8273306;28;20054;-89
2022/11/17 18:35:38;;;;;;;16.73;9.75;;;;;;;;;;8274504;28;20046;-88
2022/11/17 18:39:54;;;;;;;10.40;5.03;;;;;;;;;;8256743;28;20059;-88
2022/11/17 18:43:57;;;;;;;39.60;17.27;;;;;;;;;;8265296;28;20073;-87
2022/11/17 18:48:01;;;;;;;39.88;15.13;;;;;;;;;;8286561;28;20046;-88
2022/11/17 18:52:04;;;;;;;39.65;17.27;;;;;;;;;;8249325;28;20078;-88
2022/11/17 18:56:12;;;;;;;20.50;9.57;;;;;;;;;;8277470;28;20054;-90
2022/11/17 19:00:23;;;;;;;59.85;23.77;;;;;;;;;;8277880;28;20475;-89
2022/11/17 19:04:28;;;;;;;29.65;13.23;;;;;;;;;;8268401;28;20049;-92
2022/11/17 19:13:06;;;;;;;422.65;75.07;;;;;;;;;;8227987;28;20054;-89
2022/11/17 19:21:40;;;;;;;40.13;14.30;;;;;;;;;;8276335;28;20490;-90
2022/11/17 19:25:50;;;;;;;90.72;29.52;;;;;;;;;;8283732;28;20057;-89
2022/11/17 19:34:40;;;;;;;18.98;8.65;;;;;;;;;;8291119;28;20042;-90
2022/11/17 19:43:21;;;;;;;27.08;12.48;;;;;;;;;;8287031;28;20482;-90
2022/11/17 19:47:27;;;;;;;262.27;67.55;;;;;;;;;;8290007;28;20046;-90
2022/11/17 19:51:35;;;;;;;25.70;10.52;;;;;;;;;;8296446;28;20046;-90
2022/11/17 19:55:45;;;;;;;64.15;20.23;;;;;;;;;;8288884;28;20418;-90
2022/11/17 20:00:04;;;;;;;11.75;6.15;;;;;;;;;;8281428;28;20053;-90
2022/11/17 20:04:28;;;;;;;26.10;10.82;;;;;;;;;;8282598;28;20105;-90
2022/11/17 20:08:35;;;;;;;20.20;8.10;;;;;;;;;;8264508;28;20065;-90
2022/11/17 20:12:50;;;;;;;23.95;10.73;;;;;;;;;;8287151;28;20053;-89
2022/11/17 20:16:58;;;;;;;34.13;13.52;;;;;;;;;;8286141;28;20450;-90
2022/11/17 20:21:06;;;;;;;38.15;13.07;;;;;;;;;;8258632;28;20396;-90
2022/11/17 20:25:22;;;;;;;14.30;6.63;;;;;;;;;;8280134;28;20050;-89
2022/11/17 20:30:23;;;;;;;20.45;9.07;;;;;;;;;;8277779;28;20049;-90
2022/11/17 20:34:41;;;;;;;17.17;8.43;;;;;;;;;;8185077;29;20060;-89
2022/11/17 20:43:57;;;;;;;11.10;5.93;;;;;;;;;;8165888;29;20056;-91
2022/11/17 20:48:01;;;;;;;61.38;20.05;;;;;;;;;;8095731;29;20052;-90
2022/11/17 20:52:08;;;;;;;437.67;125.43;;;;;;;;;;8008697;29;20054;-90
2022/11/17 20:56:21;;;;;;;24.02;10.45;;;;;;;;;;8015943;29;20090;-89
2022/11/17 21:00:25;;;;;;;67.18;18.98;;;;;;;;;;8060747;29;20058;-90
2022/11/17 21:04:36;;;;;;;193.93;49.35;;;;;;;;;;8063146;29;20132;-89
2022/11/17 21:08:47;;;;;;;62.38;18.40;;;;;;;;;;8056754;29;20061;-91
2022/11/17 21:13:08;;;;;;;38.15;17.15;;;;;;;;;;8078177;29;20112;-89
2022/11/17 21:21:47;;;;;;;27.50;10.50;;;;;;;;;;8113629;29;20066;-89
2022/11/17 21:25:52;;;;;;;19.63;7.85;;;;;;;;;;8155598;29;20052;-89
2022/11/17 21:30:12;;;;;;;14.35;6.57;;;;;;;;;;8157578;29;20067;-89
2022/11/17 21:34:31;;;;;;;16.08;6.93;;;;;;;;;;8153455;29;20210;-89
2022/11/17 21:38:45;;;;;;;84.57;26.60;;;;;;;;;;8246512;23;20507;-94
2022/11/17 21:42:48;;;;;;;34.80;15.05;;;;;;;;;;8229162;28;20038;-94
2022/11/17 21:46:52;;;;;;;14.35;6.65;;;;;;;;;;8230846;28;20035;-94
2022/11/17 21:51:00;;;;;;;44.58;15.30;;;;;;;;;;8200899;28;20110;-90
2022/11/17 21:55:10;;;;;;;14.95;6.60;;;;;;;;;;8201420;28;20110;-95
2022/11/17 21:59:24;;;;;;;12.50;6.22;;;;;;;;;;8232899;28;20406;-94
2022/11/17 22:03:37;;;;;;;19.50;9.95;;;;;;;;;;8228896;28;20046;-94
2022/11/17 22:07:40;;;;;;;13.85;6.70;;;;;;;;;;8233172;28;20156;-92
2022/11/17 22:11:43;;;;;;;16.55;7.50;;;;;;;;;;8219732;28;20053;-92
2022/11/17 22:15:47;;;;;;;14.23;7.45;;;;;;;;;;8222579;28;20403;-93
2022/11/17 22:20:05;;;;;;;11.63;5.25;;;;;;;;;;8233707;28;20049;-93
2022/11/17 22:24:10;;;;;;;11.27;6.30;;;;;;;;;;8234564;28;20038;-93
2022/11/17 22:28:13;;;;;;;10.93;5.15;;;;;;;;;;8229442;28;20133;-92
2022/11/17 22:32:16;;;;;;;21.25;10.85;;;;;;;;;;8230274;28;20102;-93
2022/11/17 22:36:20;;;;;;;22.73;10.98;;;;;;;;;;8220475;28;20138;-92
2022/11/17 22:40:34;;;;;;;;;;;;;;;;;;;;;
2022/11/17 22:44:37;;;;;;;11.55;5.85;;;;;;;;;;8226757;28;20043;-92
2022/11/17 22:48:46;;;;;;;16.67;8.07;;;;;;;;;;8233936;28;20043;-93
2022/11/17 22:52:50;;;;;;;19.70;9.07;;;;;;;;;;8233520;28;20383;-91
2022/11/17 22:56:59;;;;;;;12.77;5.95;;;;;;;;;;8228479;28;20035;-93
2022/11/17 23:01:08;;;;;;;9.23;4.65;;;;;;;;;;8237484;28;20050;-92
2022/11/17 23:05:11;;;;;;;11.77;5.32;;;;;;;;;;8236552;28;20050;-93
2022/11/17 23:09:15;;;;;;;12.57;5.75;;;;;;;;;;8240426;28;20498;-95
2022/11/17 23:13:18;;;;;;;9.55;4.75;;;;;;;;;;8240362;28;20066;-93
2022/11/17 23:17:41;;;;;;;11.88;5.80;;;;;;;;;;8239989;28;20047;-93
2022/11/17 23:21:44;;;;;;;12.57;7.85;;;;;;;;;;8235273;28;20058;-93
2022/11/17 23:25:48;;;;;;;12.10;6.20;;;;;;;;;;8231308;28;20053;-94
2022/11/17 23:29:59;;;;;;;23.83;9.73;;;;;;;;;;8239901;28;20043;-94
2022/11/17 23:34:08;;;;;;;10.85;5.03;;;;;;;;;;8239786;28;20098;-92
2022/11/17 23:38:12;;;;;;;10.60;4.30;;;;;;;;;;8239141;28;20118;-94
2022/11/17 23:42:37;;;;;;;9.82;5.35;;;;;;;;;;8239488;28;20050;-93
2022/11/17 23:46:40;;;;;;;9.90;5.65;;;;;;;;;;8221541;28;20054;-93
2022/11/17 23:50:42;;;;;;;13.70;6.53;;;;;;;;;;8239027;28;20121;-91
2022/11/17 23:54:45;;;;;;;15.10;6.90;;;;;;;;;;8251160;28;20038;-93
2022/11/17 23:58:50;;;;;;;9.27;4.93;;;;;;;;;;8255201;28;20046;-93
